Time;durP1;ratioP1;P1;durP2;ratioP2;P2;SDS_P1;SDS_P2;PMS_P1;PMS_P2;Temp;Humidity;BMP_temperature;BMP_pressure;BME280_temperature;BME280_humidity;BME280_pressure;Samples;Min_cycle;Max_cycle;Signal;HPM_P1;HPM_P2
2024/01/20 00:01:38;;;;;;;7.00;4.00;;;;;;;;;;44236;272;3031568;-32
2024/01/20 00:03:32;;;;;;;7.00;3.80;;;;;;;;;;44233;275;3031893;-32
2024/01/20 00:05:27;;;;;;;6.10;3.80;;;;;;;;;;44199;279;3032005;-32
2024/01/20 00:07:21;;;;;;;7.20;4.00;;;;;;;;;;44124;272;3031749;-32
2024/01/20 00:10:39;;;;;;;7.10;4.20;;;;;;;;;;44246;308;3012776;-32
2024/01/20 00:12:34;;;;;;;6.80;4.20;;;;;;;;;;43327;283;3032026;-32
2024/01/20 00:14:22;;;;;;;7.50;4.30;;;;;;;;;;43355;279;3031329;-32
2024/01/20 00:16:18;;;;;;;6.70;3.90;;;;;;;;;;43391;270;3031277;-32
2024/01/20 00:18:16;;;;;;;7.10;3.90;;;;;;;;;;44154;270;3032567;-32
2024/01/20 00:20:19;;;;;;;7.00;3.80;;;;;;;;;;44113;270;3031635;-32
2024/01/20 00:22:27;;;;;;;7.20;4.00;;;;;;;;;;44097;281;3038264;-31
2024/01/20 00:24:21;;;;;;;6.90;3.70;;;;;;;;;;43420;289;3031257;-31
2024/01/20 00:26:19;;;;;;;7.20;3.90;;;;;;;;;;44125;269;3030511;-31
2024/01/20 00:28:17;;;;;;;6.80;3.90;;;;;;;;;;44140;277;3031104;-31
2024/01/20 00:30:16;;;;;;;6.10;3.80;;;;;;;;;;44130;289;3030993;-31
2024/01/20 00:32:15;;;;;;;5.80;3.50;;;;;;;;;;44102;280;3031310;-31
2024/01/20 00:34:18;;;;;;;6.50;3.90;;;;;;;;;;44148;280;3040038;-31
2024/01/20 00:36:15;;;;;;;6.90;4.00;;;;;;;;;;44144;280;3030641;-31
2024/01/20 00:38:01;;;;;;;6.40;3.90;;;;;;;;;;44195;277;3030727;-31
2024/01/20 00:39:55;;;;;;;6.20;3.70;;;;;;;;;;44163;276;3031226;-31
2024/01/20 00:41:50;;;;;;;6.70;3.70;;;;;;;;;;44148;272;3030607;-32
2024/01/20 00:43:48;;;;;;;7.00;4.10;;;;;;;;;;43496;280;3031807;-32
2024/01/20 00:45:42;;;;;;;6.70;4.10;;;;;;;;;;43458;280;3030829;-32
2024/01/20 00:47:28;;;;;;;6.90;3.80;;;;;;;;;;43456;280;3030901;-32
2024/01/20 00:49:18;;;;;;;6.70;3.80;;;;;;;;;;43431;280;3030961;-32
2024/01/20 00:51:07;;;;;;;6.20;3.70;;;;;;;;;;43422;281;3031446;-32
2024/01/20 00:52:56;;;;;;;7.20;3.90;;;;;;;;;;43446;274;3030782;-32
2024/01/20 00:54:46;;;;;;;7.00;3.80;;;;;;;;;;43410;281;3031010;-32
2024/01/20 00:56:37;;;;;;;6.70;3.90;;;;;;;;;;43429;269;3030956;-32
2024/01/20 00:58:29;;;;;;;6.60;3.70;;;;;;;;;;43435;269;3030977;-32
2024/01/20 01:00:27;;;;;;;6.70;3.80;;;;;;;;;;43439;289;3031961;-31
2024/01/20 01:02:19;;;;;;;6.60;3.90;;;;;;;;;;44130;273;3030883;-31
2024/01/20 01:04:11;;;;;;;6.70;3.70;;;;;;;;;;44085;274;3030852;-31
2024/01/20 01:06:06;;;;;;;6.40;3.80;;;;;;;;;;44121;281;3036556;-31
2024/01/20 01:07:58;;;;;;;7.50;4.20;;;;;;;;;;43952;281;3030992;-31
2024/01/20 01:09:51;;;;;;;6.30;3.80;;;;;;;;;;43447;281;3030995;-31
2024/01/20 01:11:37;;;;;;;7.10;3.90;;;;;;;;;;43428;281;3030823;-31
2024/01/20 01:13:41;;;;;;;6.50;3.90;;;;;;;;;;44143;277;3030658;-31
2024/01/20 01:15:32;;;;;;;7.30;3.90;;;;;;;;;;44115;269;3030464;-31
2024/01/20 01:18:51;;;;;;;7.50;4.10;;;;;;;;;;44265;308;3011488;-32
2024/01/20 01:20:43;;;;;;;6.90;4.10;;;;;;;;;;43042;289;3031305;-32
2024/01/20 01:22:34;;;;;;;7.20;4.10;;;;;;;;;;43050;285;3031841;-32
2024/01/20 01:24:29;;;;;;;6.60;3.80;;;;;;;;;;43428;283;3031505;-32
2024/01/20 01:26:24;;;;;;;6.80;3.90;;;;;;;;;;43300;283;3032025;-32
2024/01/20 01:28:16;;;;;;;6.90;3.70;;;;;;;;;;43310;283;3031034;-32
2024/01/20 01:30:21;;;;;;;6.60;3.90;;;;;;;;;;43260;283;3038325;-32
2024/01/20 01:32:17;;;;;;;6.80;3.80;;;;;;;;;;43443;291;3031876;-32
2024/01/20 01:34:08;;;;;;;6.80;3.80;;;;;;;;;;44100;270;3031896;-32
2024/01/20 01:35:53;;;;;;;6.90;4.10;;;;;;;;;;44148;280;3030807;-32
2024/01/20 01:37:38;;;;;;;7.20;4.00;;;;;;;;;;44179;276;3030479;-32
2024/01/20 01:39:30;;;;;;;7.10;4.30;;;;;;;;;;44148;281;3030705;-32
2024/01/20 01:43:10;;;;;;;7.10;4.00;;;;;;;;;;44262;308;3011556;-31
2024/01/20 01:44:59;;;;;;;6.90;4.00;;;;;;;;;;43036;298;3031500;-31
2024/01/20 01:47:00;;;;;;;7.00;4.20;;;;;;;;;;43518;290;3031794;-31
2024/01/20 01:48:58;;;;;;;7.40;4.20;;;;;;;;;;43547;275;3031407;-31
2024/01/20 01:51:05;;;;;;;8.00;4.20;;;;;;;;;;44012;276;3031161;-31
2024/01/20 01:53:02;;;;;;;6.80;4.20;;;;;;;;;;43324;271;3031258;-31
2024/01/20 01:54:54;;;;;;;6.70;4.00;;;;;;;;;;43323;279;3031128;-31
2024/01/20 01:56:51;;;;;;;6.20;4.30;;;;;;;;;;42826;280;3620717;-31
2024/01/20 01:58:46;;;;;;;6.60;4.10;;;;;;;;;;44051;278;3032011;-31
2024/01/20 02:00:37;;;;;;;6.90;4.00;;;;;;;;;;44124;269;3031606;-31
2024/01/20 02:02:33;;;;;;;6.40;3.90;;;;;;;;;;44105;269;3031547;-31
2024/01/20 02:04:28;;;;;;;7.50;4.20;;;;;;;;;;44082;278;3031117;-31
2024/01/20 02:07:33;;;;;;;6.70;3.80;;;;;;;;;;44241;307;3011729;-32
2024/01/20 02:09:28;;;;;;;6.30;3.90;;;;;;;;;;43705;289;3031807;-32
2024/01/20 02:11:22;;;;;;;7.60;4.00;;;;;;;;;;43752;285;3031808;-32
2024/01/20 02:13:14;;;;;;;7.20;4.20;;;;;;;;;;43622;283;3031426;-32
2024/01/20 02:15:12;;;;;;;6.70;3.70;;;;;;;;;;44025;279;3031375;-32
2024/01/20 02:17:03;;;;;;;7.30;3.80;;;;;;;;;;44012;275;3031409;-32
2024/01/20 02:18:54;;;;;;;6.80;4.00;;;;;;;;;;43991;279;3038422;-32
2024/01/20 02:21:30;;;;;;;6.40;3.90;;;;;;;;;;44233;304;3011824;-32
2024/01/20 02:23:23;;;;;;;6.60;3.90;;;;;;;;;;43113;288;3032844;-32
2024/01/20 02:25:19;;;;;;;6.50;4.20;;;;;;;;;;43103;289;3031240;-32
2024/01/20 02:27:12;;;;;;;7.70;4.20;;;;;;;;;;43800;289;3031477;-32
2024/01/20 02:29:08;;;;;;;6.70;4.10;;;;;;;;;;43928;285;3031462;-32
2024/01/20 02:31:12;;;;;;;6.70;4.00;;;;;;;;;;43953;274;3031298;-32
2024/01/20 02:33:15;;;;;;;6.40;3.90;;;;;;;;;;43926;286;3037847;-32
2024/01/20 02:35:21;;;;;;;7.10;4.10;;;;;;;;;;43178;285;3031449;-32
2024/01/20 02:37:14;;;;;;;6.60;3.90;;;;;;;;;;44002;288;3031086;-32
2024/01/20 02:39:13;;;;;;;6.70;4.10;;;;;;;;;;44231;276;3031350;-32
2024/01/20 02:41:11;;;;;;;6.40;4.00;;;;;;;;;;44176;268;3031131;-32
2024/01/20 02:43:02;;;;;;;7.00;3.90;;;;;;;;;;44129;289;3037425;-32
2024/01/20 02:44:51;;;;;;;7.00;4.40;;;;;;;;;;44167;268;3031832;-32
2024/01/20 02:46:42;;;;;;;6.60;4.10;;;;;;;;;;43996;268;3030992;-32
2024/01/20 02:48:33;;;;;;;6.50;3.90;;;;;;;;;;43427;281;3031286;-32
2024/01/20 02:50:31;;;;;;;6.20;3.90;;;;;;;;;;44138;277;3031140;-32
2024/01/20 02:52:28;;;;;;;6.50;4.20;;;;;;;;;;44085;273;3032231;-32
2024/01/20 02:56:07;;;;;;;6.90;4.00;;;;;;;;;;44244;307;3013062;-32
2024/01/20 02:58:01;;;;;;;7.00;4.00;;;;;;;;;;43377;286;3031660;-32
2024/01/20 02:59:51;;;;;;;6.70;4.00;;;;;;;;;;43092;289;3031719;-32
2024/01/20 03:01:46;;;;;;;5.80;3.60;;;;;;;;;;43106;289;3031632;-32
2024/01/20 03:03:42;;;;;;;6.50;3.80;;;;;;;;;;43898;287;3031598;-32
2024/01/20 03:05:37;;;;;;;6.70;4.00;;;;;;;;;;44073;277;3033083;-32
2024/01/20 03:07:32;;;;;;;6.20;3.80;;;;;;;;;;44097;281;3037256;-32
2024/01/20 03:09:28;;;;;;;6.40;3.80;;;;;;;;;;43373;289;3031649;-32
2024/01/20 03:11:25;;;;;;;6.90;3.80;;;;;;;;;;44141;276;3031329;-32
2024/01/20 03:13:20;;;;;;;6.40;3.80;;;;;;;;;;44144;276;3030475;-32
2024/01/20 03:15:20;;;;;;;7.00;3.90;;;;;;;;;;44141;272;3030638;-32
2024/01/20 03:17:12;;;;;;;7.40;4.20;;;;;;;;;;44196;268;3030957;-32
2024/01/20 03:19:10;;;;;;;6.80;3.90;;;;;;;;;;44174;276;3039049;-32
2024/01/20 03:20:58;;;;;;;7.20;3.80;;;;;;;;;;44192;276;3031107;-32
2024/01/20 03:22:50;;;;;;;7.20;3.90;;;;;;;;;;44174;276;3030579;-32
2024/01/20 03:24:43;;;;;;;6.70;3.60;;;;;;;;;;44203;276;3031440;-32
2024/01/20 03:26:38;;;;;;;7.10;3.80;;;;;;;;;;44140;276;3031055;-32
2024/01/20 03:28:34;;;;;;;7.50;4.00;;;;;;;;;;43464;280;3030430;-32
2024/01/20 03:30:22;;;;;;;7.20;3.90;;;;;;;;;;43464;268;3031183;-32
2024/01/20 03:32:19;;;;;;;6.40;3.70;;;;;;;;;;43454;280;3031255;-32
2024/01/20 03:34:12;;;;;;;6.60;3.90;;;;;;;;;;43458;268;3030957;-32
2024/01/20 03:36:14;;;;;;;6.00;3.60;;;;;;;;;;43468;268;3030684;-32
2024/01/20 03:38:13;;;;;;;6.50;3.60;;;;;;;;;;44124;272;3030529;-32
2024/01/20 03:40:09;;;;;;;5.80;3.50;;;;;;;;;;44129;280;3038877;-32
2024/01/20 03:42:06;;;;;;;7.00;3.70;;;;;;;;;;44136;272;3030878;-32
2024/01/20 03:43:56;;;;;;;6.50;3.70;;;;;;;;;;44140;279;3031015;-31
2024/01/20 03:45:59;;;;;;;6.20;3.70;;;;;;;;;;44135;280;3030989;-31
2024/01/20 03:47:57;;;;;;;6.90;4.00;;;;;;;;;;44128;289;3030794;-31
2024/01/20 03:49:51;;;;;;;7.00;3.50;;;;;;;;;;44147;276;3031096;-31
2024/01/20 03:51:42;;;;;;;7.20;3.70;;;;;;;;;;44159;289;3037121;-31
2024/01/20 03:53:54;;;;;;;6.80;3.40;;;;;;;;;;44164;276;3031130;-31
2024/01/20 03:56:00;;;;;;;6.20;3.70;;;;;;;;;;44204;268;3030984;-32
2024/01/20 03:57:59;;;;;;;6.90;3.80;;;;;;;;;;44204;275;3030832;-32
2024/01/20 04:00:04;;;;;;;6.50;3.50;;;;;;;;;;44194;275;3030477;-32
2024/01/20 04:02:12;;;;;;;7.30;3.90;;;;;;;;;;44177;272;3031160;-32
2024/01/20 04:05:42;;;;;;;7.10;3.50;;;;;;;;;;44181;308;3012010;-32
2024/01/20 04:07:39;;;;;;;6.70;3.70;;;;;;;;;;43986;280;3032034;-32
2024/01/20 04:09:27;;;;;;;6.60;3.40;;;;;;;;;;43385;272;3032429;-32
2024/01/20 04:11:15;;;;;;;6.60;3.90;;;;;;;;;;43297;284;3031651;-32
2024/01/20 04:13:11;;;;;;;6.50;3.80;;;;;;;;;;43570;276;3031688;-32
2024/01/20 04:15:02;;;;;;;6.40;3.70;;;;;;;;;;43298;272;3031897;-32
2024/01/20 04:16:51;;;;;;;6.60;3.50;;;;;;;;;;43964;284;3037165;-32
2024/01/20 04:18:55;;;;;;;7.00;3.70;;;;;;;;;;44003;284;3039971;-32
2024/01/20 04:20:48;;;;;;;7.30;3.80;;;;;;;;;;43531;278;3033145;-32
2024/01/20 04:22:39;;;;;;;6.50;3.50;;;;;;;;;;44127;279;3032362;-32
2024/01/20 04:24:34;;;;;;;6.90;4.00;;;;;;;;;;43924;271;3031968;-32
2024/01/20 04:26:21;;;;;;;6.40;3.50;;;;;;;;;;43410;271;3031411;-32
2024/01/20 04:28:11;;;;;;;;;;;;;;;;;;43542;275;3031331;-32
2024/01/20 04:30:00;;;;;;;6.40;3.50;;;;;;;;;;43361;282;3030958;-32
2024/01/20 04:31:51;;;;;;;6.60;3.50;;;;;;;;;;43398;282;3031447;-32
2024/01/20 04:33:42;;;;;;;6.70;3.40;;;;;;;;;;43403;282;3031212;-32
2024/01/20 04:35:30;;;;;;;6.20;3.30;;;;;;;;;;43369;271;3031778;-32
2024/01/20 04:37:31;;;;;;;6.40;3.30;;;;;;;;;;44099;279;3032859;-31
2024/01/20 04:39:22;;;;;;;;;;;;;;;;;;43821;275;3031618;-31
2024/01/20 04:41:21;;;;;;;7.20;3.50;;;;;;;;;;43457;267;3031075;-31
2024/01/20 04:43:11;;;;;;;6.50;3.30;;;;;;;;;;43488;280;3031740;-31
2024/01/20 04:45:00;;;;;;;6.20;3.10;;;;;;;;;;44200;271;3031614;-32
2024/01/20 04:46:55;;;;;;;6.40;3.30;;;;;;;;;;44338;274;3031605;-32
2024/01/20 04:48:51;;;;;;;6.00;3.40;;;;;;;;;;43562;265;3032588;-32
2024/01/20 04:50:41;;;;;;;6.90;3.60;;;;;;;;;;43546;278;3032090;-32
2024/01/20 04:52:32;;;;;;;6.90;3.80;;;;;;;;;;43555;278;3031554;-32
2024/01/20 04:54:26;;;;;;;7.00;3.50;;;;;;;;;;43548;270;3031090;-32
2024/01/20 04:56:24;;;;;;;6.70;3.50;;;;;;;;;;43551;266;3031588;-32
2024/01/20 04:58:24;;;;;;;6.50;3.40;;;;;;;;;;43611;270;3031452;-32
2024/01/20 05:00:33;;;;;;;6.20;3.10;;;;;;;;;;43936;278;3031339;-32
2024/01/20 05:02:27;;;;;;;7.30;3.60;;;;;;;;;;43740;266;3031140;-32
2024/01/20 05:04:22;;;;;;;6.20;3.40;;;;;;;;;;43550;277;3032107;-32
2024/01/20 05:06:16;;;;;;;6.20;3.50;;;;;;;;;;44237;273;3031836;-32
2024/01/20 05:08:10;;;;;;;5.70;3.10;;;;;;;;;;44263;274;3031231;-32
2024/01/20 05:09:59;;;;;;;6.30;3.10;;;;;;;;;;44276;274;3031278;-32
2024/01/20 05:11:51;;;;;;;5.80;3.20;;;;;;;;;;44244;274;3031735;-32
2024/01/20 05:13:48;;;;;;;5.70;3.30;;;;;;;;;;44192;278;3031805;-32
2024/01/20 05:15:38;;;;;;;6.30;3.40;;;;;;;;;;44191;286;3031072;-32
2024/01/20 05:17:30;;;;;;;6.30;3.40;;;;;;;;;;44194;270;3031675;-32
2024/01/20 05:19:26;;;;;;;6.20;3.00;;;;;;;;;;44252;270;3031561;-32
2024/01/20 05:21:26;;;;;;;5.90;3.00;;;;;;;;;;44271;274;3031390;-32
2024/01/20 05:24:58;;;;;;;5.60;3.10;;;;;;;;;;44211;308;3011395;-32
2024/01/20 05:27:10;;;;;;;5.80;3.20;;;;;;;;;;43875;276;3031147;-32
2024/01/20 05:29:02;;;;;;;6.50;3.00;;;;;;;;;;43851;287;3031715;-32
2024/01/20 05:30:53;;;;;;;6.60;3.00;;;;;;;;;;43160;287;3032303;-32
2024/01/20 05:32:46;;;;;;;5.50;2.70;;;;;;;;;;43900;287;3031897;-32
2024/01/20 05:34:40;;;;;;;6.30;3.50;;;;;;;;;;43377;287;3031257;-32
2024/01/20 05:36:28;;;;;;;6.40;3.20;;;;;;;;;;43173;287;3031947;-32
2024/01/20 05:38:25;;;;;;;5.90;3.10;;;;;;;;;;42819;276;4535997;-32
2024/01/20 05:40:16;;;;;;;6.60;3.20;;;;;;;;;;44091;281;3031248;-32
2024/01/20 05:42:04;;;;;;;6.20;3.20;;;;;;;;;;43872;269;3031138;-32
2024/01/20 05:44:04;;;;;;;5.60;2.90;;;;;;;;;;44181;269;3031999;-32
2024/01/20 05:45:57;;;;;;;5.80;2.90;;;;;;;;;;44127;270;3031828;-32
2024/01/20 05:49:33;;;;;;;5.90;3.10;;;;;;;;;;44367;300;3012968;-32
2024/01/20 05:51:30;;;;;;;5.60;2.90;;;;;;;;;;43076;291;3031184;-32
2024/01/20 05:53:20;;;;;;;5.30;2.90;;;;;;;;;;42991;292;3031631;-32
2024/01/20 05:55:10;;;;;;;5.70;3.00;;;;;;;;;;43734;289;3031324;-32
2024/01/20 05:56:58;;;;;;;5.40;3.10;;;;;;;;;;44021;282;3031263;-32
2024/01/20 05:58:47;;;;;;;5.60;2.80;;;;;;;;;;43844;294;3031930;-32
2024/01/20 06:00:42;;;;;;;5.40;3.20;;;;;;;;;;43246;284;3038410;-32
2024/01/20 06:02:31;;;;;;;5.40;2.70;;;;;;;;;;42792;281;3031624;-32
2024/01/20 06:04:22;;;;;;;5.70;3.00;;;;;;;;;;43987;283;3030961;-32
2024/01/20 06:06:13;;;;;;;5.70;2.90;;;;;;;;;;44032;283;3031933;-32
2024/01/20 06:07:56;;;;;;;5.90;2.90;;;;;;;;;;44031;279;3031753;-32
2024/01/20 06:09:40;;;;;;;5.60;3.10;;;;;;;;;;43981;283;3031484;-32
2024/01/20 06:11:32;;;;;;;5.00;2.80;;;;;;;;;;43589;282;3031718;-32
2024/01/20 06:13:17;;;;;;;5.50;3.00;;;;;;;;;;43825;271;3031221;-32
2024/01/20 06:15:15;;;;;;;5.50;2.80;;;;;;;;;;43292;271;3031751;-32
2024/01/20 06:17:03;;;;;;;5.70;2.80;;;;;;;;;;44133;271;3031435;-32
2024/01/20 06:18:45;;;;;;;5.10;2.90;;;;;;;;;;43647;283;3031580;-32
2024/01/20 06:20:26;;;;;;;5.50;2.80;;;;;;;;;;43296;283;3031465;-31
2024/01/20 06:22:11;;;;;;;5.00;2.50;;;;;;;;;;43313;283;3031516;-32
2024/01/20 06:23:56;;;;;;;5.50;2.80;;;;;;;;;;43318;279;3032433;-32
2024/01/20 06:25:44;;;;;;;5.60;3.00;;;;;;;;;;43323;283;3030736;-32
2024/01/20 06:27:30;;;;;;;5.40;2.90;;;;;;;;;;43298;290;3033708;-32
2024/01/20 06:29:15;;;;;;;5.40;2.70;;;;;;;;;;43706;271;3031670;-32
2024/01/20 06:31:04;;;;;;;5.40;2.70;;;;;;;;;;43309;271;3032003;-32
2024/01/20 06:32:49;;;;;;;5.70;2.90;;;;;;;;;;43324;283;3031889;-32
2024/01/20 06:34:36;;;;;;;5.30;2.70;;;;;;;;;;43310;292;3030830;-32
2024/01/20 06:36:28;;;;;;;5.80;3.20;;;;;;;;;;43539;283;3031749;-32
2024/01/20 06:38:18;;;;;;;5.60;2.90;;;;;;;;;;43302;283;3031987;-32
2024/01/20 06:40:13;;;;;;;5.70;2.90;;;;;;;;;;43301;275;3031620;-32
2024/01/20 06:42:02;;;;;;;5.00;2.90;;;;;;;;;;44117;275;3031464;-32
2024/01/20 06:43:48;;;;;;;5.00;2.60;;;;;;;;;;44062;275;3031793;-32
2024/01/20 06:45:41;;;;;;;5.20;2.70;;;;;;;;;;43489;283;3032097;-32
2024/01/20 06:47:33;;;;;;;5.80;2.90;;;;;;;;;;43349;287;3032255;-32
2024/01/20 06:49:27;;;;;;;5.70;3.00;;;;;;;;;;43905;283;3031754;-32
2024/01/20 06:51:25;;;;;;;6.10;3.10;;;;;;;;;;43946;276;3030987;-32
2024/01/20 06:53:11;;;;;;;5.40;2.90;;;;;;;;;;44015;271;3037889;-32
2024/01/20 06:54:59;;;;;;;5.40;3.00;;;;;;;;;;43598;271;3031259;-32
2024/01/20 06:56:45;;;;;;;5.40;2.70;;;;;;;;;;43299;271;3031883;-32
2024/01/20 06:58:41;;;;;;;5.10;2.70;;;;;;;;;;43316;283;3032053;-32
2024/01/20 07:00:30;;;;;;;5.00;2.90;;;;;;;;;;44007;276;3031813;-32
2024/01/20 07:02:36;;;;;;;5.50;2.90;;;;;;;;;;43337;284;3032105;-32
2024/01/20 07:04:26;;;;;;;5.40;2.80;;;;;;;;;;43266;284;3036937;-32
2024/01/20 07:06:20;;;;;;;5.30;2.80;;;;;;;;;;43308;284;3032280;-32
2024/01/20 07:08:19;;;;;;;5.30;2.90;;;;;;;;;;43306;283;3031534;-32
2024/01/20 07:10:21;;;;;;;4.90;2.70;;;;;;;;;;44026;272;3031696;-32
2024/01/20 07:12:12;;;;;;;5.30;2.80;;;;;;;;;;43314;283;3031425;-32
2024/01/20 07:14:01;;;;;;;4.70;2.70;;;;;;;;;;43755;283;3031045;-32
2024/01/20 07:15:52;;;;;;;5.50;2.90;;;;;;;;;;44060;275;3032212;-32
2024/01/20 07:17:40;;;;;;;5.50;2.80;;;;;;;;;;44050;275;3031302;-32
2024/01/20 07:19:29;;;;;;;6.10;3.30;;;;;;;;;;43655;283;3031180;-32
2024/01/20 07:21:13;;;;;;;5.10;2.60;;;;;;;;;;43330;287;3031778;-32
2024/01/20 07:23:02;;;;;;;5.60;2.90;;;;;;;;;;43332;271;3031555;-32
2024/01/20 07:24:44;;;;;;;5.00;2.90;;;;;;;;;;43501;271;3032114;-32
2024/01/20 07:26:33;;;;;;;5.50;2.70;;;;;;;;;;43756;279;3031143;-32
2024/01/20 07:28:24;;;;;;;5.30;2.70;;;;;;;;;;43341;279;3032376;-32
2024/01/20 07:30:17;;;;;;;5.50;3.00;;;;;;;;;;43339;271;3031343;-32
2024/01/20 07:32:06;;;;;;;5.70;3.20;;;;;;;;;;43566;283;3031551;-32
2024/01/20 07:33:56;;;;;;;5.30;2.90;;;;;;;;;;43406;283;3031533;-32
2024/01/20 07:35:46;;;;;;;5.20;2.80;;;;;;;;;;43316;275;3031399;-32
2024/01/20 07:37:36;;;;;;;5.00;2.90;;;;;;;;;;43597;275;3031339;-32
2024/01/20 07:39:38;;;;;;;4.90;2.80;;;;;;;;;;43584;283;3031450;-32
2024/01/20 07:41:34;;;;;;;4.90;2.90;;;;;;;;;;43344;283;3032314;-32
2024/01/20 07:43:16;;;;;;;5.00;2.80;;;;;;;;;;44052;272;3031690;-32
2024/01/20 07:45:10;;;;;;;5.40;2.70;;;;;;;;;;44026;276;3031369;-32
2024/01/20 07:47:04;;;;;;;5.20;2.90;;;;;;;;;;44042;271;3039022;-32
2024/01/20 07:49:33;;;;;;;5.80;3.00;;;;;;;;;;44234;304;3011873;-32
2024/01/20 07:51:24;;;;;;;6.40;3.10;;;;;;;;;;43610;286;3031669;-32
2024/01/20 07:53:17;;;;;;;5.90;3.00;;;;;;;;;;43047;289;3031344;-32
2024/01/20 07:55:12;;;;;;;5.70;3.20;;;;;;;;;;43515;289;3031955;-32
2024/01/20 07:57:00;;;;;;;5.70;3.00;;;;;;;;;;43199;289;3031569;-32
2024/01/20 07:59:01;;;;;;;6.10;3.10;;;;;;;;;;43121;289;3031930;-32
2024/01/20 08:00:48;;;;;;;5.40;3.00;;;;;;;;;;43104;280;3036749;-32
2024/01/20 08:02:43;;;;;;;6.30;3.10;;;;;;;;;;43497;281;3031970;-32
2024/01/20 08:04:46;;;;;;;6.00;2.90;;;;;;;;;;43996;282;3031442;-32
2024/01/20 08:06:37;;;;;;;6.10;3.10;;;;;;;;;;43795;282;3031246;-32
2024/01/20 08:08:29;;;;;;;5.50;2.90;;;;;;;;;;43596;281;3031299;-32
2024/01/20 08:10:20;;;;;;;5.40;3.00;;;;;;;;;;43823;281;3031976;-32
2024/01/20 08:12:15;;;;;;;5.20;2.90;;;;;;;;;;44110;278;3032508;-32
2024/01/20 08:14:05;;;;;;;5.90;3.10;;;;;;;;;;44089;281;3031531;-32
2024/01/20 08:15:52;;;;;;;5.80;3.20;;;;;;;;;;43518;281;3031359;-32
2024/01/20 08:17:37;;;;;;;6.80;3.10;;;;;;;;;;43367;282;3031928;-32
2024/01/20 08:19:25;;;;;;;6.30;3.00;;;;;;;;;;43385;278;3031763;-32
2024/01/20 08:21:13;;;;;;;7.70;3.20;;;;;;;;;;43370;282;3031596;-32
2024/01/20 08:23:01;;;;;;;5.90;3.00;;;;;;;;;;43385;273;3032644;-32
2024/01/20 08:24:53;;;;;;;6.10;3.10;;;;;;;;;;43390;282;3031473;-32
2024/01/20 08:26:44;;;;;;;6.40;3.10;;;;;;;;;;44099;273;3030980;-32
2024/01/20 08:28:46;;;;;;;5.90;3.10;;;;;;;;;;43691;278;3031229;-32
2024/01/20 08:30:39;;;;;;;5.80;2.90;;;;;;;;;;43384;281;3031710;-32
2024/01/20 08:32:27;;;;;;;6.10;2.90;;;;;;;;;;43364;270;3032263;-31
2024/01/20 08:34:18;;;;;;;6.40;3.20;;;;;;;;;;43624;270;3031840;-31
2024/01/20 09:24:32;;;;;;;6.40;3.20;;;;;;;;;;44202;308;3011269;-32
2024/01/20 09:26:27;;;;;;;5.40;3.00;;;;;;;;;;43899;287;3031879;-32
2024/01/20 09:28:24;;;;;;;5.80;3.10;;;;;;;;;;43913;283;3031866;-32
2024/01/20 09:30:19;;;;;;;6.60;3.00;;;;;;;;;;44043;279;3031337;-32
2024/01/20 09:32:11;;;;;;;5.70;3.00;;;;;;;;;;43631;270;3031462;-32
2024/01/20 09:34:17;;;;;;;6.00;2.80;;;;;;;;;;44168;270;3030961;-32
2024/01/20 09:36:24;;;;;;;5.60;2.90;;;;;;;;;;44193;279;3039337;-32
2024/01/20 09:38:49;;;;;;;5.30;3.00;;;;;;;;;;44236;307;3011155;-32
2024/01/20 09:40:37;;;;;;;5.70;3.10;;;;;;;;;;43124;288;3031437;-32
2024/01/20 09:42:37;;;;;;;6.10;3.40;;;;;;;;;;43070;285;3031552;-32
2024/01/20 09:44:32;;;;;;;6.60;3.30;;;;;;;;;;43845;287;3031901;-32
2024/01/20 09:46:30;;;;;;;6.10;2.80;;;;;;;;;;43921;276;3031700;-31
2024/01/20 09:48:24;;;;;;;5.90;2.90;;;;;;;;;;44096;291;3032189;-32
2024/01/20 09:50:34;;;;;;;6.10;3.00;;;;;;;;;;43449;275;3037149;-32
2024/01/20 09:52:34;;;;;;;6.10;3.40;;;;;;;;;;43030;275;3763358;-31
2024/01/20 09:54:26;;;;;;;5.30;3.00;;;;;;;;;;43527;265;3031418;-31
2024/01/20 09:56:21;;;;;;;5.60;3.20;;;;;;;;;;43571;272;3032118;-31
2024/01/20 09:58:24;;;;;;;6.30;3.30;;;;;;;;;;44385;264;3031676;-31
2024/01/20 10:00:33;;;;;;;5.80;3.10;;;;;;;;;;44222;269;3031276;-31
2024/01/20 10:02:28;;;;;;;5.10;2.90;;;;;;;;;;44194;272;3031521;-31
2024/01/20 10:04:27;;;;;;;5.60;3.00;;;;;;;;;;43568;272;3032898;-32
2024/01/20 10:06:24;;;;;;;5.90;3.30;;;;;;;;;;43607;264;3031835;-31
2024/01/20 10:08:13;;;;;;;6.70;3.60;;;;;;;;;;44280;272;3031142;-31
2024/01/20 10:10:11;;;;;;;5.80;3.00;;;;;;;;;;44206;272;3032337;-32
2024/01/20 10:12:02;;;;;;;6.20;3.10;;;;;;;;;;44285;272;3032044;-31
2024/01/20 10:13:52;;;;;;;6.80;3.40;;;;;;;;;;44288;269;3030992;-31
2024/01/20 10:15:46;;;;;;;5.50;3.20;;;;;;;;;;44312;264;3031939;-31
2024/01/20 10:17:54;;;;;;;6.80;3.20;;;;;;;;;;44339;272;3031702;-32
2024/01/20 10:20:06;;;;;;;5.30;2.80;;;;;;;;;;44252;272;3031696;-31
2024/01/20 10:22:00;;;;;;;6.00;3.00;;;;;;;;;;44284;272;3031436;-32
2024/01/20 10:25:10;;;;;;;6.60;3.40;;;;;;;;;;44256;306;3011991;-32
2024/01/20 10:27:04;;;;;;;6.10;3.40;;;;;;;;;;43163;286;3031469;-31
2024/01/20 10:29:05;;;;;;;5.80;3.30;;;;;;;;;;43875;295;3031945;-31
2024/01/20 10:31:10;;;;;;;6.30;3.60;;;;;;;;;;43892;286;3031654;-31
2024/01/20 10:33:06;;;;;;;6.60;3.30;;;;;;;;;;43866;275;3031260;-31
2024/01/20 10:35:01;;;;;;;6.10;3.40;;;;;;;;;;43877;275;3031149;-31
2024/01/20 10:36:53;;;;;;;6.00;3.80;;;;;;;;;;43561;287;3030886;-31
2024/01/20 10:38:44;;;;;;;6.20;3.50;;;;;;;;;;42774;271;3031945;-31
2024/01/20 10:40:34;;;;;;;6.50;3.60;;;;;;;;;;43330;287;3030895;-31
2024/01/20 10:42:30;;;;;;;6.20;3.50;;;;;;;;;;43407;281;3031020;-31
2024/01/20 10:44:29;;;;;;;6.50;3.30;;;;;;;;;;44111;278;3030648;-31
2024/01/20 10:46:29;;;;;;;6.30;3.40;;;;;;;;;;44113;281;3031144;-31
2024/01/20 10:49:30;;;;;;;6.30;3.80;;;;;;;;;;44189;308;3011463;-32
2024/01/20 10:51:23;;;;;;;6.40;3.90;;;;;;;;;;43078;290;3032865;-31
2024/01/20 10:53:23;;;;;;;7.00;4.00;;;;;;;;;;43095;289;3031488;-31
2024/01/20 10:55:11;;;;;;;6.00;3.50;;;;;;;;;;43215;289;3031364;-31
2024/01/20 10:57:11;;;;;;;6.40;3.50;;;;;;;;;;43830;287;3031714;-31
2024/01/20 10:59:13;;;;;;;6.50;3.50;;;;;;;;;;43653;287;3031858;-31
2024/01/20 11:01:12;;;;;;;6.20;3.50;;;;;;;;;;43291;272;3038724;-30
2024/01/20 11:03:09;;;;;;;6.40;3.50;;;;;;;;;;43560;285;3546907;-30
2024/01/20 11:05:17;;;;;;;6.10;3.30;;;;;;;;;;43312;272;3031551;-30
2024/01/20 11:07:20;;;;;;;6.00;3.20;;;;;;;;;;43391;282;3031545;-30
2024/01/20 11:09:09;;;;;;;7.50;3.40;;;;;;;;;;43384;282;3031288;-30
2024/01/20 11:11:02;;;;;;;7.00;3.80;;;;;;;;;;43357;274;3031380;-30
2024/01/20 11:13:07;;;;;;;6.90;3.50;;;;;;;;;;44071;274;3031904;-30
2024/01/20 11:15:11;;;;;;;7.20;3.30;;;;;;;;;;44120;278;3032253;-30
2024/01/20 11:17:16;;;;;;;;;;;;;;;;;;44098;278;3031921;-30
2024/01/20 11:19:25;;;;;;;5.90;3.40;;;;;;;;;;43605;270;3031527;-30
2024/01/20 11:21:19;;;;;;;5.80;3.30;;;;;;;;;;43927;278;3031810;-30
